Terminal Aerodrome Forecast
Issued by NWS

Home | Current Version | Previous Version | Text Only | Print | Product List | Glossary On
Versions: 1 2 3 4 5 6 7 8 9 10 11 12 13 14 15 16 17 18 19 20 21 22 23 24 25 26 27 28 29 30 31 32 33 34 35 36 37 38
000
FTUS41 KRNK 230956 AAA
TAFLWB
TAF AMD
KLWB 230956Z 2310/2406 32004KT P6SM -DZ OVC022
     FM231500 32007KT P6SM OVC027
     FM232100 31005KT P6SM BKN030
     FM240300 31002KT P6SM SCT040 BKN100=

USA.gov is the U.S. government's official web portal to all federal, state and local government web resources and services.